sensor_id;sensor_type;location;lat;lon;timestamp;P1;durP1;ratioP1;P2;durP2;ratioP2
73154;SDS011;61364;52.418;7.382;2022-08-27T00:01:24;1.50;;;1.50;;
73154;SDS011;61364;52.418;7.382;2022-08-27T00:03:50;1.58;;;1.58;;
73154;SDS011;61364;52.418;7.382;2022-08-27T00:06:18;1.55;;;1.55;;
73154;SDS011;61364;52.418;7.382;2022-08-27T00:08:44;1.57;;;1.57;;
73154;SDS011;61364;52.418;7.382;2022-08-27T00:11:10;1.55;;;1.55;;
73154;SDS011;61364;52.418;7.382;2022-08-27T00:13:37;1.55;;;1.55;;
73154;SDS011;61364;52.418;7.382;2022-08-27T00:16:04;1.38;;;1.38;;
73154;SDS011;61364;52.418;7.382;2022-08-27T00:18:31;1.47;;;1.47;;
73154;SDS011;61364;52.418;7.382;2022-08-27T00:20:57;1.50;;;1.50;;
73154;SDS011;61364;52.418;7.382;2022-08-27T00:23:22;1.42;;;1.42;;
73154;SDS011;61364;52.418;7.382;2022-08-27T00:25:48;1.43;;;1.43;;
73154;SDS011;61364;52.418;7.382;2022-08-27T00:28:14;1.57;;;1.57;;
73154;SDS011;61364;52.418;7.382;2022-08-27T00:30:40;1.38;;;1.38;;
73154;SDS011;61364;52.418;7.382;2022-08-27T00:33:06;1.47;;;1.47;;
73154;SDS011;61364;52.418;7.382;2022-08-27T00:35:32;1.39;;;1.39;;
73154;SDS011;61364;52.418;7.382;2022-08-27T00:37:58;1.38;;;1.38;;
73154;SDS011;61364;52.418;7.382;2022-08-27T00:40:25;1.27;;;1.27;;
73154;SDS011;61364;52.418;7.382;2022-08-27T00:42:51;1.27;;;1.27;;
73154;SDS011;61364;52.418;7.382;2022-08-27T00:45:19;1.22;;;1.22;;
73154;SDS011;61364;52.418;7.382;2022-08-27T00:47:47;1.35;;;1.35;;
73154;SDS011;61364;52.418;7.382;2022-08-27T00:50:31;1.30;;;1.30;;
73154;SDS011;61364;52.418;7.382;2022-08-27T00:53:00;1.34;;;1.34;;
73154;SDS011;61364;52.418;7.382;2022-08-27T00:55:31;1.52;;;1.52;;
73154;SDS011;61364;52.418;7.382;2022-08-27T00:58:17;1.31;;;1.31;;
73154;SDS011;61364;52.418;7.382;2022-08-27T01:00:45;1.36;;;1.36;;
73154;SDS011;61364;52.418;7.382;2022-08-27T01:03:12;1.53;;;1.53;;
73154;SDS011;61364;52.418;7.382;2022-08-27T01:05:38;1.32;;;1.32;;
73154;SDS011;61364;52.418;7.382;2022-08-27T01:08:09;1.49;;;1.49;;
73154;SDS011;61364;52.418;7.382;2022-08-27T01:10:37;1.32;;;1.32;;
73154;SDS011;61364;52.418;7.382;2022-08-27T01:13:06;1.34;;;1.34;;
73154;SDS011;61364;52.418;7.382;2022-08-27T01:15:31;1.39;;;1.39;;
73154;SDS011;61364;52.418;7.382;2022-08-27T01:17:57;1.37;;;1.37;;
73154;SDS011;61364;52.418;7.382;2022-08-27T01:20:27;1.32;;;1.32;;
73154;SDS011;61364;52.418;7.382;2022-08-27T01:22:58;1.46;;;1.46;;
73154;SDS011;61364;52.418;7.382;2022-08-27T01:25:29;1.38;;;1.38;;
73154;SDS011;61364;52.418;7.382;2022-08-27T01:27:56;1.28;;;1.28;;
73154;SDS011;61364;52.418;7.382;2022-08-27T01:30:24;1.42;;;1.42;;
73154;SDS011;61364;52.418;7.382;2022-08-27T01:32:51;1.41;;;1.41;;
73154;SDS011;61364;52.418;7.382;2022-08-27T01:35:16;1.47;;;1.47;;
73154;SDS011;61364;52.418;7.382;2022-08-27T01:37:44;1.45;;;1.45;;
73154;SDS011;61364;52.418;7.382;2022-08-27T01:40:12;1.36;;;1.36;;
73154;SDS011;61364;52.418;7.382;2022-08-27T01:42:39;1.36;;;1.36;;
73154;SDS011;61364;52.418;7.382;2022-08-27T01:47:33;1.48;;;1.48;;
73154;SDS011;61364;52.418;7.382;2022-08-27T01:49:59;1.37;;;1.37;;
73154;SDS011;61364;52.418;7.382;2022-08-27T01:52:27;1.59;;;1.53;;
73154;SDS011;61364;52.418;7.382;2022-08-27T01:54:53;1.51;;;1.44;;
73154;SDS011;61364;52.418;7.382;2022-08-27T01:57:20;1.58;;;1.53;;
73154;SDS011;61364;52.418;7.382;2022-08-27T01:59:46;1.48;;;1.45;;
73154;SDS011;61364;52.418;7.382;2022-08-27T02:02:13;1.34;;;1.34;;
73154;SDS011;61364;52.418;7.382;2022-08-27T02:04:41;1.53;;;1.51;;
73154;SDS011;61364;52.418;7.382;2022-08-27T02:07:08;1.52;;;1.48;;
73154;SDS011;61364;52.418;7.382;2022-08-27T02:09:35;1.55;;;1.52;;
73154;SDS011;61364;52.418;7.382;2022-08-27T02:12:02;1.60;;;1.60;;
73154;SDS011;61364;52.418;7.382;2022-08-27T02:14:28;1.40;;;1.40;;
73154;SDS011;61364;52.418;7.382;2022-08-27T02:16:53;1.42;;;1.39;;
73154;SDS011;61364;52.418;7.382;2022-08-27T02:19:20;1.29;;;1.26;;
73154;SDS011;61364;52.418;7.382;2022-08-27T02:21:46;1.33;;;1.30;;
73154;SDS011;61364;52.418;7.382;2022-08-27T02:24:14;1.41;;;1.40;;
73154;SDS011;61364;52.418;7.382;2022-08-27T02:26:40;1.34;;;1.34;;
73154;SDS011;61364;52.418;7.382;2022-08-27T02:29:06;1.31;;;1.31;;
73154;SDS011;61364;52.418;7.382;2022-08-27T02:31:32;1.45;;;1.45;;
73154;SDS011;61364;52.418;7.382;2022-08-27T02:33:57;1.48;;;1.47;;
73154;SDS011;61364;52.418;7.382;2022-08-27T02:36:23;1.48;;;1.45;;
73154;SDS011;61364;52.418;7.382;2022-08-27T02:38:49;1.40;;;1.40;;
73154;SDS011;61364;52.418;7.382;2022-08-27T02:41:15;1.27;;;1.27;;
73154;SDS011;61364;52.418;7.382;2022-08-27T02:43:42;1.36;;;1.36;;
73154;SDS011;61364;52.418;7.382;2022-08-27T02:46:08;1.45;;;1.45;;
73154;SDS011;61364;52.418;7.382;2022-08-27T02:48:37;1.38;;;1.38;;
73154;SDS011;61364;52.418;7.382;2022-08-27T02:51:03;1.47;;;1.47;;
73154;SDS011;61364;52.418;7.382;2022-08-27T02:53:30;1.20;;;1.20;;
73154;SDS011;61364;52.418;7.382;2022-08-27T02:55:56;1.33;;;1.33;;
73154;SDS011;61364;52.418;7.382;2022-08-27T02:58:21;1.36;;;1.36;;
73154;SDS011;61364;52.418;7.382;2022-08-27T03:00:47;1.35;;;1.35;;
73154;SDS011;61364;52.418;7.382;2022-08-27T03:03:12;1.52;;;1.52;;
73154;SDS011;61364;52.418;7.382;2022-08-27T03:05:38;1.32;;;1.32;;
73154;SDS011;61364;52.418;7.382;2022-08-27T03:08:04;1.45;;;1.45;;
73154;SDS011;61364;52.418;7.382;2022-08-27T03:10:30;1.33;;;1.33;;
73154;SDS011;61364;52.418;7.382;2022-08-27T03:12:56;1.26;;;1.26;;
73154;SDS011;61364;52.418;7.382;2022-08-27T03:15:22;1.29;;;1.29;;
73154;SDS011;61364;52.418;7.382;2022-08-27T03:17:48;1.33;;;1.33;;
73154;SDS011;61364;52.418;7.382;2022-08-27T03:20:33;1.45;;;1.45;;
73154;SDS011;61364;52.418;7.382;2022-08-27T03:23:01;1.51;;;1.51;;
73154;SDS011;61364;52.418;7.382;2022-08-27T03:25:27;1.36;;;1.36;;
73154;SDS011;61364;52.418;7.382;2022-08-27T03:27:52;1.58;;;1.58;;
73154;SDS011;61364;52.418;7.382;2022-08-27T03:30:19;1.49;;;1.49;;
73154;SDS011;61364;52.418;7.382;2022-08-27T03:32:45;1.26;;;1.26;;
73154;SDS011;61364;52.418;7.382;2022-08-27T03:35:11;1.35;;;1.35;;
73154;SDS011;61364;52.418;7.382;2022-08-27T03:37:37;1.42;;;1.42;;
73154;SDS011;61364;52.418;7.382;2022-08-27T03:40:03;1.54;;;1.54;;
73154;SDS011;61364;52.418;7.382;2022-08-27T03:42:30;1.45;;;1.45;;
73154;SDS011;61364;52.418;7.382;2022-08-27T03:44:56;1.50;;;1.50;;
73154;SDS011;61364;52.418;7.382;2022-08-27T03:47:21;1.55;;;1.55;;
73154;SDS011;61364;52.418;7.382;2022-08-27T03:49:48;1.34;;;1.34;;
73154;SDS011;61364;52.418;7.382;2022-08-27T03:52:13;1.59;;;1.59;;
73154;SDS011;61364;52.418;7.382;2022-08-27T03:54:39;1.59;;;1.59;;
73154;SDS011;61364;52.418;7.382;2022-08-27T03:57:05;1.36;;;1.36;;
73154;SDS011;61364;52.418;7.382;2022-08-27T03:59:32;1.52;;;1.52;;
73154;SDS011;61364;52.418;7.382;2022-08-27T04:01:58;1.43;;;1.43;;
73154;SDS011;61364;52.418;7.382;2022-08-27T04:04:24;1.47;;;1.47;;
73154;SDS011;61364;52.418;7.382;2022-08-27T04:06:49;1.57;;;1.57;;
73154;SDS011;61364;52.418;7.382;2022-08-27T04:09:15;1.31;;;1.31;;
73154;SDS011;61364;52.418;7.382;2022-08-27T04:11:41;1.50;;;1.50;;
73154;SDS011;61364;52.418;7.382;2022-08-27T04:14:07;1.50;;;1.50;;
73154;SDS011;61364;52.418;7.382;2022-08-27T04:16:34;1.44;;;1.44;;
73154;SDS011;61364;52.418;7.382;2022-08-27T04:19:00;1.34;;;1.34;;
73154;SDS011;61364;52.418;7.382;2022-08-27T04:21:26;1.39;;;1.39;;
73154;SDS011;61364;52.418;7.382;2022-08-27T04:23:54;1.50;;;1.50;;
73154;SDS011;61364;52.418;7.382;2022-08-27T04:26:21;1.50;;;1.50;;
73154;SDS011;61364;52.418;7.382;2022-08-27T04:28:47;1.44;;;1.44;;
73154;SDS011;61364;52.418;7.382;2022-08-27T04:31:13;1.57;;;1.57;;
73154;SDS011;61364;52.418;7.382;2022-08-27T04:33:39;1.37;;;1.37;;
73154;SDS011;61364;52.418;7.382;2022-08-27T04:36:06;1.37;;;1.37;;
73154;SDS011;61364;52.418;7.382;2022-08-27T04:38:32;1.42;;;1.42;;
73154;SDS011;61364;52.418;7.382;2022-08-27T04:41:00;1.48;;;1.48;;
73154;SDS011;61364;52.418;7.382;2022-08-27T04:43:47;1.50;;;1.50;;
73154;SDS011;61364;52.418;7.382;2022-08-27T04:46:18;1.49;;;1.49;;
73154;SDS011;61364;52.418;7.382;2022-08-27T04:48:44;1.44;;;1.43;;
73154;SDS011;61364;52.418;7.382;2022-08-27T04:51:09;1.48;;;1.47;;
73154;SDS011;61364;52.418;7.382;2022-08-27T04:53:35;1.54;;;1.53;;
73154;SDS011;61364;52.418;7.382;2022-08-27T04:56:00;1.56;;;1.54;;
73154;SDS011;61364;52.418;7.382;2022-08-27T04:58:26;1.55;;;1.55;;
73154;SDS011;61364;52.418;7.382;2022-08-27T05:00:52;1.52;;;1.50;;
73154;SDS011;61364;52.418;7.382;2022-08-27T05:03:19;1.60;;;1.56;;
73154;SDS011;61364;52.418;7.382;2022-08-27T05:05:50;1.56;;;1.56;;
73154;SDS011;61364;52.418;7.382;2022-08-27T05:08:17;1.52;;;1.52;;
73154;SDS011;61364;52.418;7.382;2022-08-27T05:10:44;1.56;;;1.56;;
73154;SDS011;61364;52.418;7.382;2022-08-27T05:13:10;1.51;;;1.51;;
73154;SDS011;61364;52.418;7.382;2022-08-27T05:15:36;1.52;;;1.52;;
73154;SDS011;61364;52.418;7.382;2022-08-27T05:18:02;1.43;;;1.43;;
73154;SDS011;61364;52.418;7.382;2022-08-27T05:20:28;1.49;;;1.49;;
73154;SDS011;61364;52.418;7.382;2022-08-27T05:22:55;1.52;;;1.52;;
73154;SDS011;61364;52.418;7.382;2022-08-27T05:25:21;1.46;;;1.45;;
73154;SDS011;61364;52.418;7.382;2022-08-27T05:27:47;1.58;;;1.56;;
73154;SDS011;61364;52.418;7.382;2022-08-27T05:30:12;1.57;;;1.57;;
73154;SDS011;61364;52.418;7.382;2022-08-27T05:32:38;1.49;;;1.49;;
73154;SDS011;61364;52.418;7.382;2022-08-27T05:35:04;1.43;;;1.43;;
73154;SDS011;61364;52.418;7.382;2022-08-27T05:37:29;1.46;;;1.46;;
73154;SDS011;61364;52.418;7.382;2022-08-27T05:39:58;1.49;;;1.49;;
73154;SDS011;61364;52.418;7.382;2022-08-27T05:42:24;1.55;;;1.55;;
73154;SDS011;61364;52.418;7.382;2022-08-27T05:44:50;1.53;;;1.53;;
73154;SDS011;61364;52.418;7.382;2022-08-27T05:47:16;1.58;;;1.58;;
73154;SDS011;61364;52.418;7.382;2022-08-27T05:49:42;1.46;;;1.46;;
73154;SDS011;61364;52.418;7.382;2022-08-27T05:52:09;1.63;;;1.62;;
73154;SDS011;61364;52.418;7.382;2022-08-27T05:54:35;1.66;;;1.62;;
73154;SDS011;61364;52.418;7.382;2022-08-27T05:57:01;1.59;;;1.56;;
73154;SDS011;61364;52.418;7.382;2022-08-27T05:59:27;1.36;;;1.34;;
73154;SDS011;61364;52.418;7.382;2022-08-27T06:02:11;1.60;;;1.58;;
73154;SDS011;61364;52.418;7.382;2022-08-27T06:04:37;1.78;;;1.71;;
73154;SDS011;61364;52.418;7.382;2022-08-27T06:07:02;1.47;;;1.42;;
73154;SDS011;61364;52.418;7.382;2022-08-27T06:09:28;1.74;;;1.67;;
73154;SDS011;61364;52.418;7.382;2022-08-27T06:11:55;1.76;;;1.69;;
73154;SDS011;61364;52.418;7.382;2022-08-27T06:14:22;1.48;;;1.42;;
73154;SDS011;61364;52.418;7.382;2022-08-27T06:16:47;1.72;;;1.71;;
73154;SDS011;61364;52.418;7.382;2022-08-27T06:19:12;1.65;;;1.65;;
73154;SDS011;61364;52.418;7.382;2022-08-27T06:21:39;1.67;;;1.67;;
73154;SDS011;61364;52.418;7.382;2022-08-27T06:24:05;1.74;;;1.74;;
73154;SDS011;61364;52.418;7.382;2022-08-27T06:26:34;1.46;;;1.46;;
73154;SDS011;61364;52.418;7.382;2022-08-27T06:29:01;1.54;;;1.54;;
73154;SDS011;61364;52.418;7.382;2022-08-27T06:31:28;1.63;;;1.63;;
73154;SDS011;61364;52.418;7.382;2022-08-27T06:33:56;1.60;;;1.59;;
73154;SDS011;61364;52.418;7.382;2022-08-27T06:36:26;1.64;;;1.63;;
73154;SDS011;61364;52.418;7.382;2022-08-27T06:38:54;1.60;;;1.60;;
73154;SDS011;61364;52.418;7.382;2022-08-27T06:41:21;1.38;;;1.38;;
73154;SDS011;61364;52.418;7.382;2022-08-27T06:43:48;1.58;;;1.58;;
73154;SDS011;61364;52.418;7.382;2022-08-27T06:46:14;1.67;;;1.67;;
73154;SDS011;61364;52.418;7.382;2022-08-27T06:48:40;1.53;;;1.53;;
73154;SDS011;61364;52.418;7.382;2022-08-27T06:51:10;1.64;;;1.64;;
73154;SDS011;61364;52.418;7.382;2022-08-27T06:53:37;1.73;;;1.72;;
73154;SDS011;61364;52.418;7.382;2022-08-27T06:56:03;1.81;;;1.80;;
73154;SDS011;61364;52.418;7.382;2022-08-27T06:58:29;1.77;;;1.75;;
73154;SDS011;61364;52.418;7.382;2022-08-27T07:00:55;1.77;;;1.72;;
73154;SDS011;61364;52.418;7.382;2022-08-27T07:03:21;1.77;;;1.71;;
73154;SDS011;61364;52.418;7.382;2022-08-27T07:05:46;1.71;;;1.69;;
73154;SDS011;61364;52.418;7.382;2022-08-27T07:08:12;1.67;;;1.65;;
73154;SDS011;61364;52.418;7.382;2022-08-27T07:10:37;1.85;;;1.82;;
73154;SDS011;61364;52.418;7.382;2022-08-27T07:13:03;1.86;;;1.85;;
73154;SDS011;61364;52.418;7.382;2022-08-27T07:15:29;1.74;;;1.74;;
73154;SDS011;61364;52.418;7.382;2022-08-27T07:17:55;1.67;;;1.66;;
73154;SDS011;61364;52.418;7.382;2022-08-27T07:20:21;1.73;;;1.73;;
73154;SDS011;61364;52.418;7.382;2022-08-27T07:22:47;1.77;;;1.76;;
73154;SDS011;61364;52.418;7.382;2022-08-27T07:25:15;2.05;;;2.00;;
73154;SDS011;61364;52.418;7.382;2022-08-27T07:27:45;1.77;;;1.73;;
73154;SDS011;61364;52.418;7.382;2022-08-27T07:30:12;1.73;;;1.68;;
73154;SDS011;61364;52.418;7.382;2022-08-27T07:32:39;1.77;;;1.74;;
73154;SDS011;61364;52.418;7.382;2022-08-27T07:35:05;1.95;;;1.94;;
73154;SDS011;61364;52.418;7.382;2022-08-27T07:37:37;1.65;;;1.65;;
73154;SDS011;61364;52.418;7.382;2022-08-27T07:40:05;1.58;;;1.58;;
73154;SDS011;61364;52.418;7.382;2022-08-27T07:42:31;1.80;;;1.80;;
73154;SDS011;61364;52.418;7.382;2022-08-27T07:45:15;2.08;;;2.08;;
73154;SDS011;61364;52.418;7.382;2022-08-27T07:47:41;1.67;;;1.66;;
73154;SDS011;61364;52.418;7.382;2022-08-27T07:50:06;1.63;;;1.62;;
73154;SDS011;61364;52.418;7.382;2022-08-27T07:52:32;1.88;;;1.88;;
73154;SDS011;61364;52.418;7.382;2022-08-27T07:54:58;1.85;;;1.85;;
73154;SDS011;61364;52.418;7.382;2022-08-27T07:57:24;1.63;;;1.63;;
73154;SDS011;61364;52.418;7.382;2022-08-27T07:59:49;1.80;;;1.80;;
73154;SDS011;61364;52.418;7.382;2022-08-27T08:02:18;1.79;;;1.79;;
73154;SDS011;61364;52.418;7.382;2022-08-27T08:04:43;1.80;;;1.80;;
73154;SDS011;61364;52.418;7.382;2022-08-27T08:07:09;1.91;;;1.91;;
73154;SDS011;61364;52.418;7.382;2022-08-27T08:09:35;1.82;;;1.82;;
73154;SDS011;61364;52.418;7.382;2022-08-27T08:12:01;1.81;;;1.81;;
73154;SDS011;61364;52.418;7.382;2022-08-27T08:14:27;1.69;;;1.69;;
73154;SDS011;61364;52.418;7.382;2022-08-27T08:16:52;1.68;;;1.68;;
73154;SDS011;61364;52.418;7.382;2022-08-27T08:19:18;1.84;;;1.81;;
73154;SDS011;61364;52.418;7.382;2022-08-27T08:21:43;1.93;;;1.88;;
73154;SDS011;61364;52.418;7.382;2022-08-27T08:24:09;1.87;;;1.84;;
73154;SDS011;61364;52.418;7.382;2022-08-27T08:26:34;1.85;;;1.84;;
73154;SDS011;61364;52.418;7.382;2022-08-27T08:29:00;2.02;;;2.01;;
73154;SDS011;61364;52.418;7.382;2022-08-27T08:31:28;1.91;;;1.89;;
73154;SDS011;61364;52.418;7.382;2022-08-27T08:33:54;1.98;;;1.96;;
73154;SDS011;61364;52.418;7.382;2022-08-27T08:36:20;1.91;;;1.90;;
73154;SDS011;61364;52.418;7.382;2022-08-27T08:38:45;1.78;;;1.74;;
73154;SDS011;61364;52.418;7.382;2022-08-27T08:41:33;1.93;;;1.89;;
73154;SDS011;61364;52.418;7.382;2022-08-27T08:44:07;1.82;;;1.78;;
73154;SDS011;61364;52.418;7.382;2022-08-27T08:46:39;1.76;;;1.73;;
73154;SDS011;61364;52.418;7.382;2022-08-27T08:51:41;2.02;;;1.92;;
73154;SDS011;61364;52.418;7.382;2022-08-27T08:54:09;1.91;;;1.89;;
73154;SDS011;61364;52.418;7.382;2022-08-27T08:56:42;2.04;;;1.97;;
73154;SDS011;61364;52.418;7.382;2022-08-27T08:59:35;1.88;;;1.85;;
73154;SDS011;61364;52.418;7.382;2022-08-27T09:01:59;1.84;;;1.80;;
73154;SDS011;61364;52.418;7.382;2022-08-27T09:04:25;1.99;;;1.95;;
73154;SDS011;61364;52.418;7.382;2022-08-27T09:06:57;1.79;;;1.75;;
73154;SDS011;61364;52.418;7.382;2022-08-27T09:12:12;1.74;;;1.74;;
73154;SDS011;61364;52.418;7.382;2022-08-27T09:14:42;1.69;;;1.68;;
73154;SDS011;61364;52.418;7.382;2022-08-27T09:17:12;1.90;;;1.88;;
73154;SDS011;61364;52.418;7.382;2022-08-27T09:19:37;1.58;;;1.57;;
73154;SDS011;61364;52.418;7.382;2022-08-27T09:22:12;1.67;;;1.67;;
73154;SDS011;61364;52.418;7.382;2022-08-27T09:24:52;1.64;;;1.64;;
73154;SDS011;61364;52.418;7.382;2022-08-27T09:27:20;1.73;;;1.73;;
73154;SDS011;61364;52.418;7.382;2022-08-27T09:29:48;1.66;;;1.66;;
73154;SDS011;61364;52.418;7.382;2022-08-27T09:32:20;1.66;;;1.66;;
73154;SDS011;61364;52.418;7.382;2022-08-27T09:34:46;1.77;;;1.77;;
73154;SDS011;61364;52.418;7.382;2022-08-27T09:37:13;1.92;;;1.92;;
73154;SDS011;61364;52.418;7.382;2022-08-27T09:42:07;1.71;;;1.71;;
73154;SDS011;61364;52.418;7.382;2022-08-27T09:44:45;1.74;;;1.74;;
73154;SDS011;61364;52.418;7.382;2022-08-27T09:47:12;1.74;;;1.74;;
73154;SDS011;61364;52.418;7.382;2022-08-27T09:49:40;1.79;;;1.79;;
73154;SDS011;61364;52.418;7.382;2022-08-27T09:52:06;1.79;;;1.79;;
73154;SDS011;61364;52.418;7.382;2022-08-27T09:54:38;1.78;;;1.78;;
73154;SDS011;61364;52.418;7.382;2022-08-27T09:57:05;1.71;;;1.71;;
73154;SDS011;61364;52.418;7.382;2022-08-27T10:02:06;1.86;;;1.86;;
73154;SDS011;61364;52.418;7.382;2022-08-27T10:04:40;1.77;;;1.77;;
73154;SDS011;61364;52.418;7.382;2022-08-27T10:07:16;1.74;;;1.74;;
73154;SDS011;61364;52.418;7.382;2022-08-27T10:09:53;1.90;;;1.90;;
73154;SDS011;61364;52.418;7.382;2022-08-27T10:12:25;1.68;;;1.68;;
73154;SDS011;61364;52.418;7.382;2022-08-27T10:14:57;1.72;;;1.72;;
73154;SDS011;61364;52.418;7.382;2022-08-27T10:17:40;1.76;;;1.75;;
73154;SDS011;61364;52.418;7.382;2022-08-27T10:20:17;2.02;;;1.97;;
73154;SDS011;61364;52.418;7.382;2022-08-27T10:25:37;2.02;;;1.94;;
73154;SDS011;61364;52.418;7.382;2022-08-27T10:31:07;1.89;;;1.89;;
73154;SDS011;61364;52.418;7.382;2022-08-27T10:33:52;1.89;;;1.89;;
73154;SDS011;61364;52.418;7.382;2022-08-27T10:36:48;1.84;;;1.84;;
73154;SDS011;61364;52.418;7.382;2022-08-27T10:39:23;1.94;;;1.94;;
73154;SDS011;61364;52.418;7.382;2022-08-27T10:42:06;1.76;;;1.76;;
73154;SDS011;61364;52.418;7.382;2022-08-27T10:49:42;1.79;;;1.76;;
73154;SDS011;61364;52.418;7.382;2022-08-27T10:52:28;2.11;;;2.04;;
73154;SDS011;61364;52.418;7.382;2022-08-27T11:00:31;1.97;;;1.93;;
73154;SDS011;61364;52.418;7.382;2022-08-27T11:03:04;1.98;;;1.93;;
73154;SDS011;61364;52.418;7.382;2022-08-27T11:05:35;1.71;;;1.70;;
73154;SDS011;61364;52.418;7.382;2022-08-27T11:10:33;1.73;;;1.73;;
73154;SDS011;61364;52.418;7.382;2022-08-27T11:13:07;1.69;;;1.69;;
73154;SDS011;61364;52.418;7.382;2022-08-27T11:15:36;1.87;;;1.87;;
73154;SDS011;61364;52.418;7.382;2022-08-27T11:18:04;1.96;;;1.96;;
73154;SDS011;61364;52.418;7.382;2022-08-27T11:20:40;1.97;;;1.97;;
73154;SDS011;61364;52.418;7.382;2022-08-27T11:23:11;2.05;;;2.05;;
73154;SDS011;61364;52.418;7.382;2022-08-27T11:28:05;1.93;;;1.90;;
73154;SDS011;61364;52.418;7.382;2022-08-27T11:30:36;4.19;;;4.14;;
73154;SDS011;61364;52.418;7.382;2022-08-27T11:33:09;2.10;;;2.10;;
73154;SDS011;61364;52.418;7.382;2022-08-27T11:35:45;1.91;;;1.91;;
73154;SDS011;61364;52.418;7.382;2022-08-27T11:43:27;1.85;;;1.85;;
73154;SDS011;61364;52.418;7.382;2022-08-27T11:46:05;1.75;;;1.75;;
73154;SDS011;61364;52.418;7.382;2022-08-27T11:51:02;2.03;;;2.03;;
73154;SDS011;61364;52.418;7.382;2022-08-27T11:53:32;1.76;;;1.76;;
73154;SDS011;61364;52.418;7.382;2022-08-27T11:58:40;1.76;;;1.72;;
73154;SDS011;61364;52.418;7.382;2022-08-27T12:01:13;1.65;;;1.63;;
73154;SDS011;61364;52.418;7.382;2022-08-27T12:03:39;1.72;;;1.69;;
73154;SDS011;61364;52.418;7.382;2022-08-27T12:06:18;1.82;;;1.77;;
73154;SDS011;61364;52.418;7.382;2022-08-27T12:08:45;1.93;;;1.85;;
73154;SDS011;61364;52.418;7.382;2022-08-27T12:14:16;2.12;;;1.97;;
73154;SDS011;61364;52.418;7.382;2022-08-27T12:19:22;2.12;;;1.94;;
73154;SDS011;61364;52.418;7.382;2022-08-27T12:24:41;2.22;;;2.03;;
73154;SDS011;61364;52.418;7.382;2022-08-27T12:27:29;2.13;;;1.97;;
73154;SDS011;61364;52.418;7.382;2022-08-27T12:30:01;1.91;;;1.82;;
73154;SDS011;61364;52.418;7.382;2022-08-27T12:32:44;2.09;;;2.09;;
73154;SDS011;61364;52.418;7.382;2022-08-27T12:35:22;2.05;;;2.02;;
73154;SDS011;61364;52.418;7.382;2022-08-27T12:37:54;1.64;;;1.59;;
73154;SDS011;61364;52.418;7.382;2022-08-27T12:40:28;1.60;;;1.56;;
73154;SDS011;61364;52.418;7.382;2022-08-27T12:43:11;2.22;;;2.17;;
73154;SDS011;61364;52.418;7.382;2022-08-27T12:45:42;2.01;;;1.95;;
73154;SDS011;61364;52.418;7.382;2022-08-27T12:48:10;1.68;;;1.62;;
73154;SDS011;61364;52.418;7.382;2022-08-27T12:50:35;1.62;;;1.58;;
73154;SDS011;61364;52.418;7.382;2022-08-27T12:53:08;1.67;;;1.58;;
73154;SDS011;61364;52.418;7.382;2022-08-27T13:01:02;1.73;;;1.69;;
73154;SDS011;61364;52.418;7.382;2022-08-27T13:03:43;1.84;;;1.74;;
73154;SDS011;61364;52.418;7.382;2022-08-27T13:06:21;2.32;;;2.21;;
73154;SDS011;61364;52.418;7.382;2022-08-27T13:08:52;2.24;;;2.14;;
73154;SDS011;61364;52.418;7.382;2022-08-27T13:11:20;1.80;;;1.73;;
73154;SDS011;61364;52.418;7.382;2022-08-27T13:13:49;1.86;;;1.75;;
73154;SDS011;61364;52.418;7.382;2022-08-27T13:16:16;1.72;;;1.61;;
73154;SDS011;61364;52.418;7.382;2022-08-27T13:18:49;2.03;;;1.87;;
73154;SDS011;61364;52.418;7.382;2022-08-27T13:21:25;1.83;;;1.71;;
73154;SDS011;61364;52.418;7.382;2022-08-27T13:23:59;1.56;;;1.48;;
73154;SDS011;61364;52.418;7.382;2022-08-27T13:26:27;1.92;;;1.75;;
73154;SDS011;61364;52.418;7.382;2022-08-27T13:28:54;1.82;;;1.64;;
73154;SDS011;61364;52.418;7.382;2022-08-27T13:31:21;1.76;;;1.59;;
73154;SDS011;61364;52.418;7.382;2022-08-27T13:33:48;1.98;;;1.77;;
73154;SDS011;61364;52.418;7.382;2022-08-27T13:36:28;1.99;;;1.75;;
73154;SDS011;61364;52.418;7.382;2022-08-27T13:38:55;1.88;;;1.64;;
73154;SDS011;61364;52.418;7.382;2022-08-27T13:41:26;2.05;;;1.82;;
73154;SDS011;61364;52.418;7.382;2022-08-27T13:43:54;1.65;;;1.47;;
73154;SDS011;61364;52.418;7.382;2022-08-27T13:46:23;1.59;;;1.40;;
73154;SDS011;61364;52.418;7.382;2022-08-27T13:48:51;1.68;;;1.47;;
73154;SDS011;61364;52.418;7.382;2022-08-27T13:51:23;1.94;;;1.70;;
73154;SDS011;61364;52.418;7.382;2022-08-27T13:53:51;1.85;;;1.60;;
73154;SDS011;61364;52.418;7.382;2022-08-27T13:56:36;1.69;;;1.46;;
73154;SDS011;61364;52.418;7.382;2022-08-27T13:59:10;1.42;;;1.25;;
73154;SDS011;61364;52.418;7.382;2022-08-27T14:01:36;2.00;;;1.77;;
73154;SDS011;61364;52.418;7.382;2022-08-27T14:04:05;1.77;;;1.56;;
73154;SDS011;61364;52.418;7.382;2022-08-27T14:06:42;1.74;;;1.52;;
73154;SDS011;61364;52.418;7.382;2022-08-27T14:09:24;1.98;;;1.76;;
73154;SDS011;61364;52.418;7.382;2022-08-27T14:11:57;1.99;;;1.74;;
73154;SDS011;61364;52.418;7.382;2022-08-27T14:14:24;1.81;;;1.62;;
73154;SDS011;61364;52.418;7.382;2022-08-27T14:16:58;1.76;;;1.60;;
73154;SDS011;61364;52.418;7.382;2022-08-27T14:21:49;1.54;;;1.48;;
73154;SDS011;61364;52.418;7.382;2022-08-27T14:24:16;1.48;;;1.41;;
73154;SDS011;61364;52.418;7.382;2022-08-27T14:26:42;1.46;;;1.36;;
73154;SDS011;61364;52.418;7.382;2022-08-27T14:29:07;1.56;;;1.44;;
73154;SDS011;61364;52.418;7.382;2022-08-27T14:31:33;1.43;;;1.30;;
73154;SDS011;61364;52.418;7.382;2022-08-27T14:33:58;1.57;;;1.41;;
73154;SDS011;61364;52.418;7.382;2022-08-27T14:36:24;1.59;;;1.43;;
73154;SDS011;61364;52.418;7.382;2022-08-27T14:38:53;1.79;;;1.63;;
73154;SDS011;61364;52.418;7.382;2022-08-27T14:41:19;1.51;;;1.38;;
73154;SDS011;61364;52.418;7.382;2022-08-27T14:43:45;1.56;;;1.42;;
73154;SDS011;61364;52.418;7.382;2022-08-27T14:46:15;1.42;;;1.30;;
73154;SDS011;61364;52.418;7.382;2022-08-27T14:48:43;1.47;;;1.37;;
73154;SDS011;61364;52.418;7.382;2022-08-27T14:51:13;1.66;;;1.51;;
73154;SDS011;61364;52.418;7.382;2022-08-27T14:53:43;1.57;;;1.43;;
73154;SDS011;61364;52.418;7.382;2022-08-27T14:56:08;1.60;;;1.43;;
73154;SDS011;61364;52.418;7.382;2022-08-27T14:58:34;1.83;;;1.64;;
73154;SDS011;61364;52.418;7.382;2022-08-27T15:01:00;1.74;;;1.54;;
73154;SDS011;61364;52.418;7.382;2022-08-27T15:03:26;1.48;;;1.32;;
73154;SDS011;61364;52.418;7.382;2022-08-27T15:05:52;1.66;;;1.47;;
73154;SDS011;61364;52.418;7.382;2022-08-27T15:08:22;1.89;;;1.65;;
73154;SDS011;61364;52.418;7.382;2022-08-27T15:10:47;2.00;;;1.74;;
73154;SDS011;61364;52.418;7.382;2022-08-27T15:13:13;1.77;;;1.53;;
73154;SDS011;61364;52.418;7.382;2022-08-27T15:15:39;1.71;;;1.49;;
73154;SDS011;61364;52.418;7.382;2022-08-27T15:18:05;1.71;;;1.51;;
73154;SDS011;61364;52.418;7.382;2022-08-27T15:20:31;1.59;;;1.42;;
73154;SDS011;61364;52.418;7.382;2022-08-27T15:22:57;1.76;;;1.60;;
73154;SDS011;61364;52.418;7.382;2022-08-27T15:25:23;1.64;;;1.50;;
73154;SDS011;61364;52.418;7.382;2022-08-27T15:27:49;1.75;;;1.56;;
73154;SDS011;61364;52.418;7.382;2022-08-27T15:30:15;1.54;;;1.35;;
73154;SDS011;61364;52.418;7.382;2022-08-27T15:32:42;1.73;;;1.53;;
73154;SDS011;61364;52.418;7.382;2022-08-27T15:35:10;1.72;;;1.53;;
73154;SDS011;61364;52.418;7.382;2022-08-27T15:37:38;1.76;;;1.58;;
73154;SDS011;61364;52.418;7.382;2022-08-27T15:40:05;1.56;;;1.40;;
73154;SDS011;61364;52.418;7.382;2022-08-27T15:42:32;1.54;;;1.38;;
73154;SDS011;61364;52.418;7.382;2022-08-27T15:44:58;1.84;;;1.65;;
73154;SDS011;61364;52.418;7.382;2022-08-27T15:47:23;1.60;;;1.44;;
73154;SDS011;61364;52.418;7.382;2022-08-27T15:49:49;1.65;;;1.47;;
73154;SDS011;61364;52.418;7.382;2022-08-27T15:52:15;1.58;;;1.41;;
73154;SDS011;61364;52.418;7.382;2022-08-27T15:54:42;1.56;;;1.37;;
73154;SDS011;61364;52.418;7.382;2022-08-27T15:57:09;1.72;;;1.49;;